Olympia Regional Airport
KOLM : rendu visible

Aérodrome :











RETROUVEZ-NOUS SUR...

 
LOGIN :

S'inscrire | Disclaimer

   EN    FR    IT 

 









Légende :    VFR   VFR Marginal   IFR   IFR Intensif   IFR Très Intensif
Visi : 
Plafond : 
>= 8 km
>= 3000ft
5 à 8 km
1000 à 3000 ft
1500m à 5 km
500 à 1000 ft
800 à 1500m
200 à 500 ft
< 800m
< 200 ft
Symboles :   Orages  Brouillard  Fortes neiges  Fortes précipitations  Vent > 20 kt






- Altitude de l'aérodrome : 209 ft
- Code IATA : OLM


KOLM - Olympia Regional

DERNIER METAR :
  • 301654Z 22006KT 10SM -RA FEW022 BKN027 06/03 A2984 RMK AO2 RAE07B42 SLP107 P0001 T00560033

METARs EXPIRÉS :
  • 301554Z 22013G17KT 7SM RA BKN024 BKN100 05/02 A2982 RMK AO2 RAB44 SLP100 P0003 T00500022

TAF KOLM
Valide du 30 à 12h jusqu'au 31 à 12h UTC


301151Z 3012/3112 19016G25KT 6SM RA BR FEW015 SCT025 OVC035
FM301600 20014KT 2SM -RA OVC020
FM301800 20015G25KT 5SM -SHRA BKN050
FM310200 21011KT P6SM -SHRA OVC030



MET'MAP, la Météo Aéronautique d'un coup d'oeil ! - Copyright ORBIFLY Décembre 2007 - Disclaimer

ORBIFLY MET'MAP TEAM :

Programmation & Développement : Alexandra Zaïnal
Sur une idée originale de : Baudouin d'Aumeries
Assistance à la programmation : Marc-Olivier Méhu
Soutien technique & logistique : Manuel Goepfert

Contact : metmap@orbifly.com




SOURCES & CREDITS :

   NOAA       Earth
Advisory